Time;durP1;ratioP1;P1;durP2;ratioP2;P2;SDS_P1;SDS_P2;PMS_P1;PMS_P2;Temp;Humidity;BMP_temperature;BMP_pressure;BME280_temperature;BME280_humidity;BME280_pressure;Samples;Min_cycle;Max_cycle;Signal;HPM_P1;HPM_P2
2022/06/01 00:02:15;;;;;;;18.63;12.00;;;;;;;9.91;94.68;101245.38;5050801;28;20033;-65
2022/06/01 00:04:41;;;;;;;19.08;12.65;;;;;;;9.89;94.55;101250.06;5050675;28;20523;-65
2022/06/01 00:07:06;;;;;;;21.60;13.95;;;;;;;9.82;95.29;101242.00;5050795;28;20485;-65
2022/06/01 00:09:32;;;;;;;19.95;12.60;;;;;;;9.84;95.49;101249.78;5050753;28;20032;-65
2022/06/01 00:11:57;;;;;;;21.10;13.95;;;;;;;9.84;95.42;101253.28;5050691;28;20029;-65
2022/06/01 00:14:23;;;;;;;23.02;14.00;;;;;;;9.85;95.29;101257.59;5050166;28;20033;-65
2022/06/01 00:16:49;;;;;;;21.17;15.15;;;;;;;9.83;95.44;101253.47;5050443;28;20056;-64
2022/06/01 00:19:14;;;;;;;19.02;13.05;;;;;;;9.81;95.33;101258.16;5050105;28;20040;-64
2022/06/01 00:24:24;;;;;;;20.92;13.50;;;;;;;9.76;95.44;101253.34;5050796;28;20102;-65
2022/06/01 00:26:50;;;;;;;20.65;13.75;;;;;;;9.75;95.55;101254.38;5050174;28;20041;-65
2022/06/01 00:29:16;;;;;;;20.67;13.00;;;;;;;9.73;95.45;101263.56;5050453;28;20035;-64
2022/06/01 00:31:41;;;;;;;19.55;13.65;;;;;;;9.70;95.75;101263.91;5050447;28;20021;-65
2022/06/01 00:34:06;;;;;;;22.00;13.60;;;;;;;9.68;95.68;101258.75;5050188;28;20450;-64
2022/06/01 00:36:32;;;;;;;19.88;13.27;;;;;;;9.66;95.66;101261.59;5050221;28;20035;-65
2022/06/01 00:38:58;;;;;;;23.65;14.60;;;;;;;9.69;96.13;101260.41;5050130;28;20060;-65
2022/06/01 00:41:23;;;;;;;21.85;14.43;;;;;;;9.70;95.95;101262.06;5050253;28;20060;-65
2022/06/01 00:43:49;;;;;;;21.63;13.65;;;;;;;9.72;95.75;101269.88;5050028;28;20455;-65
2022/06/01 00:46:14;;;;;;;22.75;14.05;;;;;;;9.69;95.61;101254.25;5050099;28;20149;-65
2022/06/01 00:48:43;;;;;;;20.90;13.27;;;;;;;9.70;95.80;101255.94;5050021;28;20110;-65
2022/06/01 00:51:13;;;;;;;21.10;13.30;;;;;;;9.68;96.07;101252.63;5049966;28;20033;-64
2022/06/01 00:53:40;;;;;;;23.63;14.52;;;;;;;9.70;96.13;101258.59;5049877;28;20055;-65
2022/06/01 00:56:10;;;;;;;21.75;13.63;;;;;;;9.70;95.85;101259.41;5050049;28;20128;-65
2022/06/01 00:58:38;;;;;;;21.52;14.52;;;;;;;9.65;95.98;101251.97;5049819;28;20029;-65
2022/06/01 01:01:08;;;;;;;21.40;13.38;;;;;;;9.65;95.85;101251.97;5049790;28;20495;-65
2022/06/01 01:03:37;;;;;;;22.20;14.13;;;;;;;9.68;95.88;101260.59;5049802;28;20033;-65
2022/06/01 01:06:28;;;;;;;21.90;13.35;;;;;;;9.70;96.30;101255.94;5049785;28;20104;-65
2022/06/01 01:08:57;;;;;;;24.73;13.97;;;;;;;9.69;95.89;101259.59;5049837;28;20392;-65
2022/06/01 01:11:30;;;;;;;21.95;14.45;;;;;;;9.66;95.76;101258.94;5049815;28;20102;-65
2022/06/01 01:13:57;;;;;;;23.23;14.73;;;;;;;9.65;96.13;101256.47;5049766;28;20036;-65
2022/06/01 01:16:24;;;;;;;20.80;14.40;;;;;;;9.62;95.96;101255.00;5049740;28;20499;-65
2022/06/01 01:18:51;;;;;;;22.95;15.10;;;;;;;9.64;95.94;101254.78;5049612;28;20040;-65
2022/06/01 01:21:44;;;;;;;22.13;14.35;;;;;;;9.63;96.08;101250.47;5067983;28;20033;-64
2022/06/01 01:24:25;;;;;;;21.80;14.80;;;;;;;9.60;96.00;101249.00;5068780;28;20025;-65
2022/06/01 01:26:51;;;;;;;22.13;14.00;;;;;;;9.57;95.76;101244.03;5068828;28;20027;-65
2022/06/01 01:29:36;;;;;;;22.13;15.02;;;;;;;9.56;96.15;101253.06;5069201;28;20086;-65
2022/06/01 01:32:02;;;;;;;22.92;14.85;;;;;;;9.54;96.50;101247.06;5072936;28;20024;-65
2022/06/01 01:34:28;;;;;;;22.20;14.68;;;;;;;9.58;96.85;101255.53;5054629;28;20450;-65
2022/06/01 01:36:57;;;;;;;22.52;14.63;;;;;;;9.59;96.80;101249.22;5072658;28;20119;-65
2022/06/01 01:39:25;;;;;;;25.00;16.65;;;;;;;9.57;96.65;101243.22;5072584;28;20039;-65
2022/06/01 01:41:53;;;;;;;26.20;15.70;;;;;;;9.61;96.46;101245.31;5072579;28;20487;-65
2022/06/01 01:44:34;;;;;;;23.40;15.65;;;;;;;9.62;96.52;101246.19;5054754;28;20387;-65
2022/06/01 01:47:01;;;;;;;24.00;16.63;;;;;;;9.61;96.43;101244.50;5072588;28;20523;-65
2022/06/01 01:49:30;;;;;;;24.08;15.95;;;;;;;9.66;96.46;101250.13;5072496;28;20016;-68
2022/06/01 01:51:59;;;;;;;24.13;16.02;;;;;;;9.66;96.31;101247.44;5072261;28;20035;-69
2022/06/01 01:54:33;;;;;;;23.50;15.77;;;;;;;9.67;96.41;101251.78;5072341;28;20036;-68
2022/06/01 01:57:15;;;;;;;24.88;15.82;;;;;;;9.68;96.63;101248.09;5072452;28;20036;-68
2022/06/01 02:00:04;;;;;;;24.58;14.88;;;;;;;9.70;96.66;101255.94;5072197;28;20029;-68
2022/06/01 02:02:35;;;;;;;21.80;14.77;;;;;;;9.70;97.10;101254.09;5020802;28;20045;-69
2022/06/01 02:08:18;;;;;;;24.98;15.70;;;;;;;9.67;97.05;101257.13;5071570;28;19923;-68
2022/06/01 02:13:30;;;;;;;25.10;17.55;;;;;;;9.67;97.85;101259.78;5053159;28;20044;-69
2022/06/01 02:15:59;;;;;;;25.88;17.20;;;;;;;9.69;98.15;101262.25;5052707;28;20032;-68
2022/06/01 02:18:31;;;;;;;26.60;17.05;;;;;;;9.69;98.59;101257.75;5052791;28;20033;-69
2022/06/01 02:21:04;;;;;;;;;;;;;;;9.70;96.79;101256.75;5053285;28;20082;-69
2022/06/01 02:23:31;;;;;;;27.27;18.55;;;;;;;9.69;97.40;101256.91;5052924;28;20023;-69
2022/06/01 02:25:59;;;;;;;26.02;16.70;;;;;;;9.71;97.95;101255.72;5052774;28;20029;-69
2022/06/01 02:28:26;;;;;;;25.42;15.95;;;;;;;9.72;97.88;101260.06;5052205;28;20102;-69
2022/06/01 02:30:53;;;;;;;25.45;17.27;;;;;;;9.72;98.09;101253.88;5052510;28;20040;-70
2022/06/01 02:33:22;;;;;;;24.95;16.77;;;;;;;9.70;98.72;101255.94;5052253;28;20048;-68
2022/06/01 02:35:52;;;;;;;25.23;16.50;;;;;;;9.72;98.58;101264.53;5052266;28;20607;-68
2022/06/01 02:38:29;;;;;;;26.90;18.08;;;;;;;9.72;98.65;101254.75;5052039;28;20025;-68
2022/06/01 02:40:54;;;;;;;26.77;19.02;;;;;;;9.73;98.07;101248.38;5052324;28;20468;-68
2022/06/01 02:43:20;;;;;;;33.33;20.15;;;;;;;9.75;98.07;101248.22;5052270;28;20044;-69
2022/06/01 02:45:45;;;;;;;28.52;19.38;;;;;;;9.75;98.20;101254.38;5052409;28;20399;-68
2022/06/01 02:48:11;;;;;;;27.55;17.27;;;;;;;9.77;97.92;101247.03;5052282;28;20029;-68
2022/06/01 02:50:37;;;;;;;27.50;18.38;;;;;;;9.78;98.05;101254.00;5052187;28;20522;-68
2022/06/01 02:53:05;;;;;;;29.20;19.30;;;;;;;9.74;97.91;101244.72;5051509;28;20053;-69
2022/06/01 02:55:32;;;;;;;29.20;18.00;;;;;;;9.80;97.65;101256.50;5051910;28;20488;-69
2022/06/01 02:57:59;;;;;;;31.65;18.52;;;;;;;9.79;97.78;101246.84;5051869;28;21072;-69
2022/06/01 03:00:34;;;;;;;27.30;17.38;;;;;;;9.75;97.67;101251.72;5052035;28;20032;-69
2022/06/01 03:03:01;;;;;;;29.42;18.35;;;;;;;9.71;97.42;101238.94;5052066;28;20082;-70
2022/06/01 03:05:33;;;;;;;28.85;17.73;;;;;;;9.71;97.69;101244.25;5052033;28;20029;-68
2022/06/01 03:07:59;;;;;;;27.33;18.17;;;;;;;9.68;97.46;101248.09;5051855;28;20352;-69
2022/06/01 03:10:25;;;;;;;24.17;16.65;;;;;;;9.64;97.22;101245.00;5051843;28;20049;-68
2022/06/01 03:12:52;;;;;;;29.95;18.73;;;;;;;9.62;97.11;101251.50;5051533;28;20057;-68
2022/06/01 03:15:19;;;;;;;25.30;16.65;;;;;;;9.60;97.08;101249.00;5051421;28;20040;-69
2022/06/01 03:17:44;;;;;;;30.00;18.10;;;;;;;9.55;97.06;101253.22;5051660;28;20031;-69
2022/06/01 03:20:11;;;;;;;28.92;20.55;;;;;;;9.54;96.92;101249.75;5051528;28;20033;-69
2022/06/01 03:22:40;;;;;;;28.70;18.85;;;;;;;9.47;97.23;101234.66;5051641;28;20057;-69
2022/06/01 03:25:08;;;;;;;28.55;19.23;;;;;;;9.49;96.96;101257.44;5051680;28;20119;-69
2022/06/01 03:27:35;;;;;;;28.80;16.92;;;;;;;9.46;96.81;101248.97;5051635;28;20032;-68
2022/06/01 03:30:00;;;;;;;27.38;18.38;;;;;;;9.43;97.02;101247.47;5050968;28;20028;-69
2022/06/01 03:32:26;;;;;;;28.58;17.88;;;;;;;9.39;97.10;101249.69;5050707;28;20043;-68
2022/06/01 03:34:52;;;;;;;26.60;17.65;;;;;;;9.37;97.16;101248.22;5050847;28;20362;-69
2022/06/01 03:37:17;;;;;;;26.88;18.48;;;;;;;9.34;97.20;101252.06;5051248;28;20040;-69
2022/06/01 03:39:42;;;;;;;27.95;17.90;;;;;;;9.31;97.13;101256.91;5050586;28;20358;-68
2022/06/01 03:42:08;;;;;;;27.30;17.73;;;;;;;9.29;97.15;101258.94;5051213;28;20051;-68
2022/06/01 03:47:17;;;;;;;27.95;16.95;;;;;;;9.23;96.55;101264.97;5051296;28;20044;-68
2022/06/01 03:49:43;;;;;;;27.65;16.92;;;;;;;9.19;96.58;101257.31;5050991;28;20037;-68
2022/06/01 03:52:10;;;;;;;27.98;17.30;;;;;;;9.16;96.64;101263.00;5050228;28;20400;-69
2022/06/01 03:54:36;;;;;;;25.45;16.70;;;;;;;9.15;96.80;101264.00;5032441;28;20036;-69
2022/06/01 03:57:02;;;;;;;26.17;16.80;;;;;;;9.15;96.82;101263.19;5050862;28;20473;-68
2022/06/01 03:59:29;;;;;;;25.27;17.20;;;;;;;9.16;96.64;101254.19;5050811;28;20059;-68
2022/06/01 04:01:54;;;;;;;25.80;17.33;;;;;;;9.17;96.74;101258.53;5050908;28;20510;-69
2022/06/01 04:04:20;;;;;;;25.70;15.50;;;;;;;9.19;96.48;101264.47;5032633;28;20040;-69
2022/06/01 04:06:45;;;;;;;28.48;15.88;;;;;;;9.20;96.29;101272.28;5051510;28;20410;-68
2022/06/01 04:09:10;;;;;;;24.20;14.63;;;;;;;9.21;96.36;101268.63;5069799;28;20884;-69
2022/06/01 04:11:36;;;;;;;27.60;16.52;;;;;;;9.23;96.24;101264.97;5069704;28;20056;-69
2022/06/01 04:14:01;;;;;;;25.17;15.07;;;;;;;9.26;96.17;101269.94;5069734;28;20035;-68
2022/06/01 04:16:28;;;;;;;24.83;15.77;;;;;;;9.28;96.06;101274.06;5069591;28;20507;-68
2022/06/01 04:18:53;;;;;;;34.53;17.55;;;;;;;9.27;95.93;101271.56;5069434;28;20037;-68
2022/06/01 04:21:23;;;;;;;25.17;15.32;;;;;;;9.31;96.17;101271.06;5069362;28;20029;-68
2022/06/01 04:23:49;;;;;;;28.17;15.75;;;;;;;9.35;95.70;101277.69;5069367;28;20020;-68
2022/06/01 04:26:16;;;;;;;25.80;16.15;;;;;;;9.35;95.73;101272.38;5068710;28;20031;-68
2022/06/01 04:28:42;;;;;;;28.33;16.67;;;;;;;9.31;95.68;101273.72;5069109;28;20024;-69
2022/06/01 04:31:08;;;;;;;25.23;14.88;;;;;;;9.31;95.78;101271.06;5051289;28;20130;-68
2022/06/01 04:33:33;;;;;;;21.70;13.65;;;;;;;9.33;95.99;101271.72;5068903;28;20471;-69
2022/06/01 04:35:59;;;;;;;24.52;14.85;;;;;;;9.37;96.61;101261.53;5068907;28;20036;-68
2022/06/01 04:38:26;;;;;;;28.15;15.13;;;;;;;9.53;96.68;101274.69;5068973;28;20025;-68
2022/06/01 04:40:51;;;;;;;24.88;15.02;;;;;;;9.68;95.78;101258.75;5069186;28;20066;-69
2022/06/01 04:43:19;;;;;;;25.08;14.77;;;;;;;9.79;95.01;101263.63;5068956;28;20100;-69
2022/06/01 04:45:44;;;;;;;25.30;14.85;;;;;;;9.84;94.54;101271.09;5069260;28;20033;-69
2022/06/01 04:48:10;;;;;;;26.30;13.20;;;;;;;9.85;93.92;101270.06;5069043;28;20123;-68
2022/06/01 04:50:42;;;;;;;24.85;15.35;;;;;;;9.85;93.82;101275.41;5069155;28;20099;-68
2022/06/01 04:53:11;;;;;;;21.98;13.55;;;;;;;9.87;93.93;101268.88;5068815;28;20113;-68
2022/06/01 04:55:37;;;;;;;22.45;13.43;;;;;;;9.86;93.63;101272.56;5069003;28;20081;-68
2022/06/01 04:58:02;;;;;;;23.02;13.50;;;;;;;9.83;93.33;101272.94;5068920;28;20028;-69
2022/06/01 05:00:28;;;;;;;21.70;13.95;;;;;;;9.82;93.71;101273.09;5068785;28;20033;-65
2022/06/01 05:02:53;;;;;;;23.23;13.90;;;;;;;9.86;93.87;101277.91;5068810;28;20464;-65
2022/06/01 05:05:18;;;;;;;23.13;13.80;;;;;;;9.90;93.52;101278.34;5067673;28;20104;-65
2022/06/01 05:07:44;;;;;;;23.80;15.15;;;;;;;9.99;93.53;101276.47;5068611;28;20379;-65
2022/06/01 05:10:09;;;;;;;21.83;13.93;;;;;;;10.13;93.27;101275.63;5068385;28;20060;-65
2022/06/01 05:12:34;;;;;;;21.52;13.68;;;;;;;10.18;92.95;101270.56;5068914;28;20071;-65
2022/06/01 05:15:00;;;;;;;26.25;15.23;;;;;;;10.19;93.19;101282.06;5064599;28;20086;-65
2022/06/01 05:17:25;;;;;;;25.00;15.45;;;;;;;10.18;92.71;101277.75;5049501;28;20086;-65
2022/06/01 05:19:51;;;;;;;21.20;11.85;;;;;;;10.18;93.14;101283.06;5049470;28;21009;-65
2022/06/01 05:22:16;;;;;;;23.05;14.63;;;;;;;10.22;92.98;101273.72;5049515;28;20529;-65
2022/06/01 05:24:41;;;;;;;25.98;14.57;;;;;;;10.23;92.95;101280.69;5049497;28;20365;-65
2022/06/01 05:27:07;;;;;;;23.65;12.80;;;;;;;10.27;93.09;101273.97;5049644;28;20115;-65
2022/06/01 05:29:33;;;;;;;22.77;12.60;;;;;;;10.33;92.92;101278.63;5049388;28;20021;-65
2022/06/01 05:31:59;;;;;;;22.40;13.30;;;;;;;10.37;92.78;101279.88;5049378;28;20087;-65
2022/06/01 05:34:24;;;;;;;24.15;14.18;;;;;;;10.45;92.69;101276.28;5048831;28;20033;-65
2022/06/01 05:36:49;;;;;;;19.55;11.65;;;;;;;10.47;93.12;101279.59;5048989;28;20029;-65
2022/06/01 05:39:15;;;;;;;26.25;14.07;;;;;;;10.51;93.66;101281.72;5049009;28;20393;-68
2022/06/01 05:41:40;;;;;;;34.55;15.20;;;;;;;10.56;93.58;101283.00;5049271;28;20458;-69
2022/06/01 05:44:06;;;;;;;25.95;14.05;;;;;;;10.58;93.16;101284.47;5061622;28;20039;-68
2022/06/01 05:46:35;;;;;;;23.00;14.13;;;;;;;10.63;93.20;101283.91;5049225;28;20074;-68
2022/06/01 05:49:04;;;;;;;21.48;12.68;;;;;;;10.64;93.32;101293.59;5049216;28;20048;-68
2022/06/01 05:51:29;;;;;;;23.63;13.23;;;;;;;10.67;93.50;101279.88;5031414;28;20056;-68
2022/06/01 05:53:54;;;;;;;23.65;14.02;;;;;;;10.72;93.80;101298.81;5049074;28;20091;-67
2022/06/01 05:56:20;;;;;;;22.50;13.70;;;;;;;10.82;93.81;101296.69;5068249;28;20067;-70
2022/06/01 05:58:47;;;;;;;21.77;12.88;;;;;;;11.21;93.54;101295.44;5068195;28;20052;-70
2022/06/01 06:01:14;;;;;;;22.25;13.23;;;;;;;11.52;89.92;101294.31;5050346;28;20356;-70
2022/06/01 06:03:39;;;;;;;23.63;12.32;;;;;;;11.52;90.24;101302.31;5048915;28;20569;-70
2022/06/01 06:06:17;;;;;;;23.80;11.63;;;;;;;11.63;90.30;101291.97;5049210;28;20041;-70
2022/06/01 06:08:51;;;;;;;22.73;13.73;;;;;;;11.90;88.07;101302.88;5049177;28;20021;-70
2022/06/01 06:11:17;;;;;;;23.50;11.90;;;;;;;11.73;89.03;101301.47;5068167;28;20502;-70
2022/06/01 06:13:43;;;;;;;25.00;13.40;;;;;;;11.56;89.63;101298.25;5068204;28;20090;-70
2022/06/01 06:16:09;;;;;;;19.33;11.38;;;;;;;11.52;90.48;101305.81;5069900;28;20033;-70
2022/06/01 06:18:35;;;;;;;19.98;11.00;;;;;;;11.49;90.35;101298.19;5071758;28;20087;-70
2022/06/01 06:21:00;;;;;;;18.52;9.70;;;;;;;11.45;90.11;101301.41;5071873;28;20471;-69
2022/06/01 06:23:26;;;;;;;21.15;10.35;;;;;;;11.36;90.91;101303.41;5071931;28;20037;-70
2022/06/01 06:25:52;;;;;;;20.77;10.60;;;;;;;11.32;91.11;101304.81;5071874;28;20056;-66
2022/06/01 06:28:17;;;;;;;21.15;10.45;;;;;;;11.31;91.21;101319.16;5071812;28;20029;-65
2022/06/01 06:30:43;;;;;;;20.85;10.32;;;;;;;11.30;91.52;101321.00;5071708;28;20037;-65
2022/06/01 06:33:08;;;;;;;24.02;11.93;;;;;;;11.27;91.94;101316.06;5071717;28;20029;-65
2022/06/01 06:35:34;;;;;;;19.42;10.45;;;;;;;11.29;92.19;101315.84;5071453;28;20075;-65
2022/06/01 06:38:00;;;;;;;18.25;11.00;;;;;;;11.33;92.50;101311.81;5044393;28;20384;-65
2022/06/01 06:40:25;;;;;;;22.73;11.48;;;;;;;11.45;92.37;101314.78;5060396;28;20047;-66
2022/06/01 06:42:52;;;;;;;19.75;10.48;;;;;;;11.53;92.18;101322.69;5052401;28;20095;-65
2022/06/01 06:45:18;;;;;;;17.60;10.02;;;;;;;11.62;91.51;101322.34;5052626;28;20032;-65
2022/06/01 06:47:43;;;;;;;19.08;9.75;;;;;;;11.67;91.46;101329.78;5052311;28;20035;-66
2022/06/01 06:50:12;;;;;;;19.13;10.75;;;;;;;11.76;92.11;101341.16;5052274;28;20044;-65
2022/06/01 06:52:38;;;;;;;18.23;8.52;;;;;;;11.81;90.86;101336.88;5052139;28;20056;-65
2022/06/01 06:55:04;;;;;;;18.13;9.50;;;;;;;11.87;90.73;101342.50;5052124;28;20021;-65
2022/06/01 06:57:30;;;;;;;15.00;8.20;;;;;;;11.94;90.86;101338.06;5052123;28;20033;-65
2022/06/01 06:59:55;;;;;;;20.00;8.00;;;;;;;11.99;90.08;101349.00;5051947;28;20040;-65
2022/06/01 07:02:21;;;;;;;13.00;7.63;;;;;;;12.04;90.23;101336.69;5052000;28;20558;-65
2022/06/01 07:04:47;;;;;;;13.38;6.80;;;;;;;12.17;89.58;101344.00;5051914;28;20029;-65
2022/06/01 07:07:13;;;;;;;18.67;8.57;;;;;;;12.26;89.82;101350.00;5051946;28;20032;-66
2022/06/01 07:09:39;;;;;;;13.20;7.47;;;;;;;12.32;89.71;101343.91;5051792;28;20029;-65
2022/06/01 07:12:05;;;;;;;18.70;8.68;;;;;;;12.29;88.99;101344.28;5057733;28;20040;-65
2022/06/01 07:14:31;;;;;;;15.13;7.22;;;;;;;12.40;89.67;101343.75;5071004;28;20040;-66
2022/06/01 07:16:59;;;;;;;12.85;7.45;;;;;;;12.53;89.90;101353.69;5070662;28;20035;-65
2022/06/01 07:19:25;;;;;;;11.85;6.88;;;;;;;12.56;87.47;101347.13;5051254;28;20119;-66
2022/06/01 07:21:50;;;;;;;11.82;5.93;;;;;;;12.59;85.00;101346.72;5051450;28;20112;-66
2022/06/01 07:24:15;;;;;;;13.07;6.68;;;;;;;12.60;83.94;101357.25;5051582;28;20055;-65
2022/06/01 07:26:44;;;;;;;12.07;6.70;;;;;;;12.65;85.35;101353.94;5051003;28;20397;-66
2022/06/01 07:29:10;;;;;;;18.42;7.00;;;;;;;12.70;85.35;101349.66;5051113;28;20064;-66
2022/06/01 07:31:36;;;;;;;15.27;6.03;;;;;;;12.76;84.85;101345.38;5051554;28;20060;-65
2022/06/01 07:34:02;;;;;;;11.38;5.53;;;;;;;12.87;83.47;101344.00;5051475;28;20068;-66
2022/06/01 07:36:29;;;;;;;10.00;5.80;;;;;;;13.03;83.79;101362.38;5051370;28;20033;-65
2022/06/01 07:44:22;;;;;;;;;;;;;;;13.40;81.88;101362.09;5051473;28;20076;-65
2022/06/01 07:46:47;;;;;;;11.82;5.70;;;;;;;13.43;80.28;101357.16;5050947;28;19971;-65
2022/06/01 07:49:14;;;;;;;13.15;6.13;;;;;;;13.52;84.44;101347.09;5051029;28;20567;-66
2022/06/01 07:51:40;;;;;;;10.85;4.93;;;;;;;13.68;81.18;101353.91;5056812;28;20173;-66
2022/06/01 07:54:06;;;;;;;7.57;4.28;;;;;;;13.86;81.41;101359.50;5069935;28;20110;-66
2022/06/01 07:56:32;;;;;;;9.10;4.93;;;;;;;13.93;76.40;101364.84;5069939;28;20115;-65
2022/06/01 07:58:57;;;;;;;11.00;6.38;;;;;;;13.98;77.16;101354.31;5069806;28;20035;-66
2022/06/01 08:01:26;;;;;;;11.32;5.85;;;;;;;14.11;77.50;101358.88;5069878;28;20032;-65
2022/06/01 08:03:54;;;;;;;16.15;7.18;;;;;;;14.29;75.64;101359.03;5069851;28;20030;-65
2022/06/01 08:06:19;;;;;;;9.60;6.30;;;;;;;15.01;74.59;101348.31;5069978;28;20036;-65
2022/06/01 08:08:44;;;;;;;11.20;5.90;;;;;;;15.32;73.36;101351.03;5069992;28;20432;-65
2022/06/01 08:11:10;;;;;;;9.30;5.80;;;;;;;15.56;71.14;101359.38;5069741;28;20043;-66
2022/06/01 08:13:36;;;;;;;9.52;6.13;;;;;;;15.89;68.81;101361.03;5069708;28;20032;-65
2022/06/01 08:16:03;;;;;;;10.80;6.40;;;;;;;15.88;69.45;101354.03;5051695;28;20426;-65
2022/06/01 08:18:29;;;;;;;14.32;7.78;;;;;;;16.15;70.85;101363.50;5069532;28;20507;-65
2022/06/01 08:20:54;;;;;;;13.52;7.13;;;;;;;17.88;65.97;101364.06;5069672;28;20043;-65
2022/06/01 08:23:24;;;;;;;8.95;5.95;;;;;;;19.46;59.59;101353.09;5051917;28;20450;-66
2022/06/01 08:25:50;;;;;;;10.77;6.57;;;;;;;19.00;57.00;101360.34;5050141;28;20029;-65
2022/06/01 08:28:16;;;;;;;13.70;7.95;;;;;;;19.48;55.31;101363.66;5069475;28;20039;-66
2022/06/01 08:30:42;;;;;;;10.85;5.97;;;;;;;20.01;54.56;101350.78;5051180;28;20024;-66
2022/06/01 08:33:08;;;;;;;9.75;6.07;;;;;;;19.79;53.61;101366.94;5069184;28;20468;-66
2022/06/01 08:35:37;;;;;;;8.63;5.70;;;;;;;18.74;57.82;101359.00;5069157;28;20089;-65
2022/06/01 08:38:04;;;;;;;12.50;6.78;;;;;;;18.23;57.02;101363.25;5069026;28;20078;-66
2022/06/01 08:40:32;;;;;;;12.38;6.45;;;;;;;17.37;60.13;101364.59;5068899;28;20530;-66
2022/06/01 08:43:07;;;;;;;10.52;6.75;;;;;;;16.99;62.09;101349.56;5068308;28;20020;-66
2022/06/01 08:45:33;;;;;;;9.07;5.88;;;;;;;16.65;61.15;101357.19;5067980;28;20036;-66
2022/06/01 08:47:59;;;;;;;9.90;6.15;;;;;;;16.20;64.57;101354.78;5068272;28;20074;-66
2022/06/01 08:50:34;;;;;;;11.32;6.43;;;;;;;15.96;66.50;101356.44;5068478;28;20059;-66
2022/06/01 08:53:03;;;;;;;9.77;6.00;;;;;;;16.95;64.07;101351.91;5068253;28;20095;-66
2022/06/01 08:55:37;;;;;;;10.27;7.20;;;;;;;19.14;59.26;101346.56;5068707;28;20127;-66
2022/06/01 08:58:14;;;;;;;10.68;5.90;;;;;;;19.77;54.87;101344.72;5052470;28;20882;-66
2022/06/01 09:00:52;;;;;;;11.23;6.10;;;;;;;20.05;53.60;101354.63;5049454;28;20435;-66
2022/06/01 09:03:29;;;;;;;9.20;5.28;;;;;;;19.47;55.24;101353.94;5061504;28;20051;-66
2022/06/01 09:06:04;;;;;;;7.35;5.25;;;;;;;19.06;54.79;101358.56;5056242;28;20028;-66
2022/06/01 09:08:47;;;;;;;9.30;5.35;;;;;;;18.42;55.35;101360.44;5056099;28;20028;-66
2022/06/01 09:11:17;;;;;;;8.95;5.72;;;;;;;17.60;56.67;101361.97;5056386;28;20036;-66
2022/06/01 09:14:21;;;;;;;12.73;6.72;;;;;;;16.91;58.73;101366.88;5056466;28;20028;-66
2022/06/01 09:16:49;;;;;;;8.77;5.60;;;;;;;16.46;58.98;101352.88;5056551;28;20032;-65
2022/06/01 09:19:20;;;;;;;7.57;5.40;;;;;;;16.29;59.65;101364.19;5056791;28;20079;-65
2022/06/01 09:24:56;;;;;;;10.38;5.53;;;;;;;15.94;60.06;101369.28;5056817;28;20420;-66
2022/06/01 09:27:38;;;;;;;10.77;5.35;;;;;;;15.72;62.51;101358.09;5056335;28;20037;-66
2022/06/01 09:30:33;;;;;;;12.77;5.13;;;;;;;15.53;63.18;101357.13;5055802;28;20025;-66
2022/06/01 09:33:14;;;;;;;8.38;5.70;;;;;;;15.31;62.20;101370.09;5055571;28;20029;-66
2022/06/01 09:35:46;;;;;;;7.87;5.00;;;;;;;15.07;62.07;101368.97;5055528;28;20028;-66
2022/06/01 09:38:40;;;;;;;6.88;5.15;;;;;;;14.85;64.42;101376.47;5057263;28;20721;-65
2022/06/01 09:41:07;;;;;;;9.32;5.82;;;;;;;14.67;65.46;101382.53;5068546;28;20427;-65
2022/06/01 09:43:33;;;;;;;9.10;5.80;;;;;;;14.51;66.96;101399.06;5068507;28;20036;-65
2022/06/01 09:45:58;;;;;;;7.57;5.32;;;;;;;14.21;72.52;101396.81;5068384;28;21038;-65
2022/06/01 09:48:27;;;;;;;6.80;4.75;;;;;;;13.83;73.27;101402.78;5036133;28;20013;-66
2022/06/01 09:51:09;;;;;;;6.20;3.42;;;;;;;13.37;75.12;101417.75;5057705;28;20028;-65
2022/06/01 09:53:41;;;;;;;4.32;3.70;;;;;;;13.01;76.96;101412.63;5060420;28;20044;-65
2022/06/01 09:56:07;;;;;;;7.90;4.00;;;;;;;12.75;77.57;101407.94;5061688;28;20024;-66
2022/06/01 10:07:05;;;;;;;7.10;3.15;;;;;;;12.50;81.11;101403.06;5061162;28;20043;-66
2022/06/01 10:09:33;;;;;;;3.70;3.30;;;;;;;12.59;81.70;101397.56;5060012;28;20048;-66
2022/06/01 10:12:18;;;;;;;4.20;3.40;;;;;;;12.68;81.01;101394.53;5059309;28;20027;-66
2022/06/01 10:14:52;;;;;;;8.70;4.55;;;;;;;12.82;83.19;101399.97;5059489;28;20028;-66
2022/06/01 10:17:36;;;;;;;7.72;4.00;;;;;;;12.88;81.58;101407.19;5059208;28;20028;-66
2022/06/01 10:20:31;;;;;;;7.85;3.80;;;;;;;12.87;82.82;101416.28;5059023;28;20028;-65
2022/06/01 10:23:06;;;;;;;5.30;3.97;;;;;;;12.81;82.75;101433.09;5059105;28;20075;-65
2022/06/01 10:25:38;;;;;;;4.10;3.70;;;;;;;12.68;80.55;101429.34;5059427;28;20123;-64
2022/06/01 10:28:08;;;;;;;;;;;;;;;12.58;79.60;101449.44;5059465;28;20029;-64
2022/06/01 10:30:37;;;;;;;9.90;6.10;;;;;;;12.37;83.14;101461.84;5059256;28;19951;-64
2022/06/01 10:33:12;;;;;;;11.88;6.60;;;;;;;12.19;83.59;101461.47;5059417;28;20027;-64
2022/06/01 10:35:52;;;;;;;11.40;7.65;;;;;;;12.02;83.77;101463.56;5059108;28;20375;-65
2022/06/01 10:38:26;;;;;;;9.43;6.20;;;;;;;11.93;84.37;101467.41;5058919;28;20024;-64
2022/06/01 10:41:09;;;;;;;7.95;5.38;;;;;;;11.88;85.46;101467.13;5059037;28;20033;-64
2022/06/01 10:44:02;;;;;;;9.90;4.90;;;;;;;11.91;85.15;101464.91;5059290;28;20438;-65
2022/06/01 10:47:08;;;;;;;9.15;5.32;;;;;;;12.01;84.07;101459.25;5059106;28;20550;-65
2022/06/01 10:49:40;;;;;;;10.32;5.72;;;;;;;12.12;83.64;101464.06;5026445;28;20025;-65
2022/06/01 10:52:33;;;;;;;11.75;5.57;;;;;;;12.15;84.51;101462.88;5065204;28;20121;-65
2022/06/01 10:55:15;;;;;;;11.60;6.07;;;;;;;12.18;86.07;101454.44;5059856;28;20053;-65
2022/06/01 10:57:46;;;;;;;9.73;6.43;;;;;;;12.16;84.93;101457.34;5051972;28;20051;-66
2022/06/01 11:00:18;;;;;;;12.98;6.82;;;;;;;12.11;84.69;101445.56;5051934;28;20071;-66
2022/06/01 11:02:46;;;;;;;9.75;6.13;;;;;;;12.09;85.50;101439.56;5050594;28;20052;-66
2022/06/01 11:05:39;;;;;;;6.78;5.05;;;;;;;12.20;86.02;101437.19;5051872;28;20060;-66
2022/06/01 11:08:26;;;;;;;6.13;4.78;;;;;;;12.45;84.53;101437.63;5051969;28;20032;-66
2022/06/01 11:10:57;;;;;;;6.38;4.53;;;;;;;12.72;84.00;101432.44;5071074;28;20016;-66
2022/06/01 11:13:46;;;;;;;9.35;5.15;;;;;;;12.94;81.42;101435.84;5071007;28;20490;-66
2022/06/01 11:16:44;;;;;;;7.45;4.90;;;;;;;13.13;81.41;101432.47;5052887;28;20046;-66
2022/06/01 11:19:29;;;;;;;6.22;4.00;;;;;;;13.34;80.70;101441.44;5070900;28;20130;-66
2022/06/01 11:22:06;;;;;;;5.53;4.05;;;;;;;13.49;78.03;101447.47;5070667;28;20070;-66
2022/06/01 11:24:58;;;;;;;6.05;4.25;;;;;;;13.76;79.29;101432.28;5070656;28;20103;-66
2022/06/01 11:27:51;;;;;;;5.05;3.80;;;;;;;14.01;75.97;101437.03;5070609;28;20028;-66
2022/06/01 11:30:26;;;;;;;6.07;4.57;;;;;;;14.17;78.02;101435.81;5051379;28;20029;-65
2022/06/01 11:32:57;;;;;;;8.00;4.95;;;;;;;14.23;76.24;101435.84;5051199;28;20033;-65
2022/06/01 11:35:36;;;;;;;8.23;4.75;;;;;;;14.27;77.22;101436.22;5051382;28;20044;-65
2022/06/01 11:38:13;;;;;;;10.02;5.20;;;;;;;14.34;76.40;101434.38;5051338;28;20033;-65
2022/06/01 11:40:38;;;;;;;8.52;6.13;;;;;;;14.43;78.63;101435.00;5051065;28;20048;-66
2022/06/01 11:43:13;;;;;;;10.77;6.40;;;;;;;14.63;79.22;101437.69;5051158;28;20396;-66
2022/06/01 11:46:04;;;;;;;10.30;6.22;;;;;;;14.75;75.99;101436.03;5051263;28;20107;-66
2022/06/01 11:48:36;;;;;;;9.75;6.18;;;;;;;14.77;75.50;101433.94;5051150;28;20017;-66
2022/06/01 11:51:08;;;;;;;10.90;6.45;;;;;;;15.00;77.04;101432.66;5051081;28;20025;-66
2022/06/01 11:53:43;;;;;;;9.55;6.35;;;;;;;15.40;78.68;101432.47;5050941;28;20049;-66
2022/06/01 11:56:25;;;;;;;9.27;6.05;;;;;;;15.62;74.68;101441.06;5050868;28;20032;-66
2022/06/01 11:59:04;;;;;;;9.25;5.88;;;;;;;15.73;73.13;101443.09;5050890;28;20036;-66
2022/06/01 12:01:44;;;;;;;8.75;5.47;;;;;;;15.75;71.91;101433.75;5070201;28;20103;-66